sensor_id;sensor_type;location;lat;lon;timestamp;pressure;altitude;pressure_sealevel;temperature;humidity
10006;BME280;5042;42.626;23.382;2023-04-01T00:01:05;93522.94;;;11.27;100.00
10006;BME280;5042;42.626;23.382;2023-04-01T00:03:32;93521.28;;;10.76;100.00
10006;BME280;5042;42.626;23.382;2023-04-01T00:06:00;93512.97;;;10.47;100.00
10006;BME280;5042;42.626;23.382;2023-04-01T00:08:28;93509.00;;;10.25;100.00
10006;BME280;5042;42.626;23.382;2023-04-01T00:10:55;93505.88;;;10.03;100.00
10006;BME280;5042;42.626;23.382;2023-04-01T00:13:23;93528.84;;;9.94;100.00
10006;BME280;5042;42.626;23.382;2023-04-01T00:15:51;93480.59;;;9.70;100.00
10006;BME280;5042;42.626;23.382;2023-04-01T00:18:18;93519.38;;;9.93;100.00
10006;BME280;5042;42.626;23.382;2023-04-01T00:20:45;93534.03;;;10.07;100.00
10006;BME280;5042;42.626;23.382;2023-04-01T00:23:13;93507.91;;;9.94;100.00
10006;BME280;5042;42.626;23.382;2023-04-01T00:25:40;93516.75;;;10.06;100.00
10006;BME280;5042;42.626;23.382;2023-04-01T00:28:07;93521.56;;;10.03;100.00
10006;BME280;5042;42.626;23.382;2023-04-01T00:30:36;93528.22;;;9.98;100.00
10006;BME280;5042;42.626;23.382;2023-04-01T00:33:03;93510.94;;;9.91;100.00
10006;BME280;5042;42.626;23.382;2023-04-01T00:35:30;93528.03;;;10.00;100.00
10006;BME280;5042;42.626;23.382;2023-04-01T00:37:57;93511.69;;;10.05;100.00
10006;BME280;5042;42.626;23.382;2023-04-01T00:40:27;93508.88;;;10.06;100.00
10006;BME280;5042;42.626;23.382;2023-04-01T00:42:54;93510.69;;;10.06;100.00
10006;BME280;5042;42.626;23.382;2023-04-01T00:45:33;93480.66;;;10.08;100.00
10006;BME280;5042;42.626;23.382;2023-04-01T00:48:06;93495.75;;;10.13;100.00
10006;BME280;5042;42.626;23.382;2023-04-01T00:50:34;93497.75;;;10.17;100.00
10006;BME280;5042;42.626;23.382;2023-04-01T00:53:03;93479.63;;;10.16;100.00
10006;BME280;5042;42.626;23.382;2023-04-01T00:55:32;93480.34;;;10.36;100.00
10006;BME280;5042;42.626;23.382;2023-04-01T00:58:02;93487.59;;;10.41;100.00
10006;BME280;5042;42.626;23.382;2023-04-01T01:00:30;93487.94;;;10.51;100.00
10006;BME280;5042;42.626;23.382;2023-04-01T01:02:57;93489.53;;;10.52;100.00
10006;BME280;5042;42.626;23.382;2023-04-01T01:05:31;93482.25;;;10.61;100.00
10006;BME280;5042;42.626;23.382;2023-04-01T01:08:12;93482.78;;;10.70;100.00
10006;BME280;5042;42.626;23.382;2023-04-01T01:10:42;93456.03;;;10.61;100.00
10006;BME280;5042;42.626;23.382;2023-04-01T01:13:17;93469.69;;;10.70;100.00
10006;BME280;5042;42.626;23.382;2023-04-01T01:15:52;93456.91;;;10.80;100.00
10006;BME280;5042;42.626;23.382;2023-04-01T01:18:28;93449.47;;;10.77;100.00
10006;BME280;5042;42.626;23.382;2023-04-01T01:21:31;93442.78;;;10.81;100.00
10006;BME280;5042;42.626;23.382;2023-04-01T01:24:16;93452.84;;;10.84;100.00
10006;BME280;5042;42.626;23.382;2023-04-01T01:26:59;93445.72;;;10.91;100.00
10006;BME280;5042;42.626;23.382;2023-04-01T01:29:58;93453.53;;;10.73;100.00
10006;BME280;5042;42.626;23.382;2023-04-01T01:32:59;93451.69;;;10.80;100.00
10006;BME280;5042;42.626;23.382;2023-04-01T01:35:32;93440.47;;;10.91;100.00
10006;BME280;5042;42.626;23.382;2023-04-01T01:38:03;93423.00;;;10.85;100.00
10006;BME280;5042;42.626;23.382;2023-04-01T01:40:31;93428.88;;;11.06;100.00
10006;BME280;5042;42.626;23.382;2023-04-01T01:43:03;93421.19;;;11.11;100.00
10006;BME280;5042;42.626;23.382;2023-04-01T01:45:34;93424.94;;;11.15;98.16
10006;BME280;5042;42.626;23.382;2023-04-01T01:48:03;93420.00;;;11.07;100.00
10006;BME280;5042;42.626;23.382;2023-04-01T01:50:33;93429.66;;;11.31;95.93
10006;BME280;5042;42.626;23.382;2023-04-01T01:53:02;93426.22;;;11.31;96.48
10006;BME280;5042;42.626;23.382;2023-04-01T01:55:32;93420.84;;;11.25;96.93
10006;BME280;5042;42.626;23.382;2023-04-01T01:58:04;93409.44;;;11.32;95.49
10006;BME280;5042;42.626;23.382;2023-04-01T02:00:33;93397.44;;;11.42;93.12
10006;BME280;5042;42.626;23.382;2023-04-01T02:03:01;93391.03;;;11.57;91.71
10006;BME280;5042;42.626;23.382;2023-04-01T02:05:28;93407.22;;;11.54;90.96
10006;BME280;5042;42.626;23.382;2023-04-01T02:08:02;93400.06;;;11.61;90.55
10006;BME280;5042;42.626;23.382;2023-04-01T02:10:31;93387.69;;;11.68;89.85
10006;BME280;5042;42.626;23.382;2023-04-01T02:13:04;93381.84;;;11.66;88.70
10006;BME280;5042;42.626;23.382;2023-04-01T02:15:35;93384.75;;;11.76;86.89
10006;BME280;5042;42.626;23.382;2023-04-01T02:18:03;93396.28;;;11.75;87.32
10006;BME280;5042;42.626;23.382;2023-04-01T02:20:31;93389.63;;;11.91;85.68
10006;BME280;5042;42.626;23.382;2023-04-01T02:23:00;93390.88;;;11.88;88.23
10006;BME280;5042;42.626;23.382;2023-04-01T02:25:30;93390.28;;;11.86;89.79
10006;BME280;5042;42.626;23.382;2023-04-01T02:28:00;93377.00;;;11.81;90.60
10006;BME280;5042;42.626;23.382;2023-04-01T02:30:29;93376.78;;;11.83;91.57
10006;BME280;5042;42.626;23.382;2023-04-01T02:32:56;93343.78;;;11.57;90.43
10006;BME280;5042;42.626;23.382;2023-04-01T02:35:25;93357.19;;;11.67;91.33
10006;BME280;5042;42.626;23.382;2023-04-01T02:37:54;93373.97;;;11.66;92.89
10006;BME280;5042;42.626;23.382;2023-04-01T02:40:22;93376.94;;;11.70;92.54
10006;BME280;5042;42.626;23.382;2023-04-01T02:42:49;93388.41;;;11.75;91.56
10006;BME280;5042;42.626;23.382;2023-04-01T02:45:16;93381.00;;;11.84;89.37
10006;BME280;5042;42.626;23.382;2023-04-01T02:47:43;93378.13;;;11.92;89.95
10006;BME280;5042;42.626;23.382;2023-04-01T02:50:10;93382.13;;;11.95;89.14
10006;BME280;5042;42.626;23.382;2023-04-01T02:52:37;93384.84;;;11.88;88.03
10006;BME280;5042;42.626;23.382;2023-04-01T02:55:05;93396.28;;;11.94;88.09
10006;BME280;5042;42.626;23.382;2023-04-01T02:57:33;93400.66;;;12.00;87.29
10006;BME280;5042;42.626;23.382;2023-04-01T03:00:00;93395.72;;;11.92;88.68
10006;BME280;5042;42.626;23.382;2023-04-01T03:02:27;93398.34;;;11.92;89.35
10006;BME280;5042;42.626;23.382;2023-04-01T03:04:53;93409.69;;;12.04;85.74
10006;BME280;5042;42.626;23.382;2023-04-01T03:07:20;93418.03;;;12.01;86.88
10006;BME280;5042;42.626;23.382;2023-04-01T03:09:47;93414.63;;;12.12;83.88
10006;BME280;5042;42.626;23.382;2023-04-01T03:12:13;93411.34;;;12.17;83.76
10006;BME280;5042;42.626;23.382;2023-04-01T03:14:42;93423.53;;;12.11;83.54
10006;BME280;5042;42.626;23.382;2023-04-01T03:17:08;93422.09;;;12.15;83.80
10006;BME280;5042;42.626;23.382;2023-04-01T03:19:35;93419.88;;;12.12;84.77
10006;BME280;5042;42.626;23.382;2023-04-01T03:22:02;93413.50;;;12.08;86.00
10006;BME280;5042;42.626;23.382;2023-04-01T03:24:29;93412.66;;;12.07;84.80
10006;BME280;5042;42.626;23.382;2023-04-01T03:26:55;93409.09;;;12.02;83.83
10006;BME280;5042;42.626;23.382;2023-04-01T03:29:22;93413.56;;;12.01;84.68
10006;BME280;5042;42.626;23.382;2023-04-01T03:31:50;93417.13;;;12.07;78.56
10006;BME280;5042;42.626;23.382;2023-04-01T03:34:17;93399.66;;;12.43;66.57
10006;BME280;5042;42.626;23.382;2023-04-01T03:36:44;93412.56;;;12.75;64.53
10006;BME280;5042;42.626;23.382;2023-04-01T03:39:10;93403.66;;;12.87;64.99
10006;BME280;5042;42.626;23.382;2023-04-01T03:41:37;93403.56;;;13.06;66.49
10006;BME280;5042;42.626;23.382;2023-04-01T03:44:04;93296.56;;;12.41;68.53
10006;BME280;5042;42.626;23.382;2023-04-01T03:46:31;93405.50;;;13.10;71.11
10006;BME280;5042;42.626;23.382;2023-04-01T03:48:59;93403.16;;;12.79;82.76
10006;BME280;5042;42.626;23.382;2023-04-01T03:51:26;93403.31;;;12.42;88.49
10006;BME280;5042;42.626;23.382;2023-04-01T03:53:53;93395.84;;;11.97;93.08
10006;BME280;5042;42.626;23.382;2023-04-01T03:56:20;93377.38;;;11.48;96.45
10006;BME280;5042;42.626;23.382;2023-04-01T03:58:47;93375.13;;;11.33;94.02
10006;BME280;5042;42.626;23.382;2023-04-01T04:01:16;93370.34;;;11.30;98.54
10006;BME280;5042;42.626;23.382;2023-04-01T04:03:42;93340.38;;;11.19;100.00
10006;BME280;5042;42.626;23.382;2023-04-01T04:06:13;93339.34;;;11.02;100.00
10006;BME280;5042;42.626;23.382;2023-04-01T04:08:40;93321.19;;;10.82;100.00
10006;BME280;5042;42.626;23.382;2023-04-01T04:11:07;93322.91;;;10.70;100.00
10006;BME280;5042;42.626;23.382;2023-04-01T04:13:34;93333.38;;;10.70;100.00
10006;BME280;5042;42.626;23.382;2023-04-01T04:16:01;93311.25;;;10.66;100.00
10006;BME280;5042;42.626;23.382;2023-04-01T04:18:28;93306.44;;;10.63;100.00
10006;BME280;5042;42.626;23.382;2023-04-01T04:20:55;93300.44;;;10.55;100.00
10006;BME280;5042;42.626;23.382;2023-04-01T04:23:23;93292.00;;;10.53;100.00
10006;BME280;5042;42.626;23.382;2023-04-01T04:25:55;93277.84;;;10.36;100.00
10006;BME280;5042;42.626;23.382;2023-04-01T04:28:22;93300.34;;;10.69;100.00
10006;BME280;5042;42.626;23.382;2023-04-01T04:30:49;93288.63;;;10.71;100.00
10006;BME280;5042;42.626;23.382;2023-04-01T04:33:16;93275.00;;;10.81;100.00
10006;BME280;5042;42.626;23.382;2023-04-01T04:35:43;93274.94;;;10.88;100.00
10006;BME280;5042;42.626;23.382;2023-04-01T04:38:09;93278.38;;;10.88;98.53
10006;BME280;5042;42.626;23.382;2023-04-01T04:40:38;93215.88;;;10.67;96.43
10006;BME280;5042;42.626;23.382;2023-04-01T04:43:05;93259.22;;;11.06;96.62
10006;BME280;5042;42.626;23.382;2023-04-01T04:45:32;93250.25;;;11.14;95.63
10006;BME280;5042;42.626;23.382;2023-04-01T04:47:59;93244.56;;;11.17;95.10
10006;BME280;5042;42.626;23.382;2023-04-01T04:50:26;93246.44;;;11.28;93.67
10006;BME280;5042;42.626;23.382;2023-04-01T04:52:53;93231.16;;;11.25;92.83
10006;BME280;5042;42.626;23.382;2023-04-01T04:55:20;93226.03;;;11.30;92.00
10006;BME280;5042;42.626;23.382;2023-04-01T04:57:48;93227.69;;;11.43;83.71
10006;BME280;5042;42.626;23.382;2023-04-01T05:00:18;93216.28;;;11.79;75.54
10006;BME280;5042;42.626;23.382;2023-04-01T05:02:45;93224.00;;;12.04;72.31
10006;BME280;5042;42.626;23.382;2023-04-01T05:05:11;93224.59;;;12.42;72.03
10006;BME280;5042;42.626;23.382;2023-04-01T05:07:38;93218.44;;;12.24;76.40
10006;BME280;5042;42.626;23.382;2023-04-01T05:10:05;93211.00;;;12.33;70.60
10006;BME280;5042;42.626;23.382;2023-04-01T05:12:34;93195.13;;;12.40;72.03
10006;BME280;5042;42.626;23.382;2023-04-01T05:15:05;93233.66;;;12.46;74.28
10006;BME280;5042;42.626;23.382;2023-04-01T05:17:32;93229.97;;;12.47;79.55
10006;BME280;5042;42.626;23.382;2023-04-01T05:19:58;93226.44;;;12.29;84.05
10006;BME280;5042;42.626;23.382;2023-04-01T05:22:25;93217.75;;;12.17;86.59
10006;BME280;5042;42.626;23.382;2023-04-01T05:24:52;93216.69;;;12.06;87.21
10006;BME280;5042;42.626;23.382;2023-04-01T05:27:19;93200.56;;;11.91;87.76
10006;BME280;5042;42.626;23.382;2023-04-01T05:29:46;93192.94;;;11.90;87.69
10006;BME280;5042;42.626;23.382;2023-04-01T05:32:15;93200.94;;;12.18;88.98
10006;BME280;5042;42.626;23.382;2023-04-01T05:34:42;93189.66;;;12.18;90.41
10006;BME280;5042;42.626;23.382;2023-04-01T05:37:09;93206.91;;;12.37;89.47
10006;BME280;5042;42.626;23.382;2023-04-01T05:39:36;93193.06;;;12.54;89.62
10006;BME280;5042;42.626;23.382;2023-04-01T05:42:05;93197.63;;;13.22;89.02
10006;BME280;5042;42.626;23.382;2023-04-01T05:44:32;93198.69;;;14.29;84.15
10006;BME280;5042;42.626;23.382;2023-04-01T05:46:59;93209.84;;;15.58;76.56
10006;BME280;5042;42.626;23.382;2023-04-01T05:49:27;93206.66;;;16.43;65.79
10006;BME280;5042;42.626;23.382;2023-04-01T05:51:54;93150.16;;;16.59;64.05
10006;BME280;5042;42.626;23.382;2023-04-01T05:54:21;93215.03;;;17.88;61.35
10006;BME280;5042;42.626;23.382;2023-04-01T05:56:49;93209.25;;;18.37;57.50
10006;BME280;5042;42.626;23.382;2023-04-01T05:59:16;93189.56;;;18.79;56.60
10006;BME280;5042;42.626;23.382;2023-04-01T06:01:43;93128.56;;;18.43;53.82
10006;BME280;5042;42.626;23.382;2023-04-01T06:04:13;93171.97;;;19.09;53.38
10006;BME280;5042;42.626;23.382;2023-04-01T06:06:42;93192.16;;;19.64;52.66
10006;BME280;5042;42.626;23.382;2023-04-01T06:09:13;93164.53;;;20.10;48.44
10006;BME280;5042;42.626;23.382;2023-04-01T06:11:51;93195.16;;;20.07;47.78
10006;BME280;5042;42.626;23.382;2023-04-01T06:14:31;93198.47;;;19.24;47.62
10006;BME280;5042;42.626;23.382;2023-04-01T06:17:19;93195.44;;;18.19;51.65
10006;BME280;5042;42.626;23.382;2023-04-01T06:19:52;93195.84;;;17.55;53.28
10006;BME280;5042;42.626;23.382;2023-04-01T06:22:42;93189.97;;;17.37;53.19
10006;BME280;5042;42.626;23.382;2023-04-01T06:25:35;93187.25;;;17.22;56.28
10006;BME280;5042;42.626;23.382;2023-04-01T06:28:22;93189.38;;;16.72;56.92
10006;BME280;5042;42.626;23.382;2023-04-01T06:30:59;93189.16;;;16.04;57.42
10006;BME280;5042;42.626;23.382;2023-04-01T06:33:51;93191.03;;;15.77;58.57
10006;BME280;5042;42.626;23.382;2023-04-01T06:36:52;93175.38;;;15.70;60.95
10006;BME280;5042;42.626;23.382;2023-04-01T06:39:42;93182.25;;;15.49;62.80
10006;BME280;5042;42.626;23.382;2023-04-01T06:42:27;93175.72;;;15.30;60.66
10006;BME280;5042;42.626;23.382;2023-04-01T06:45:10;93156.06;;;14.71;64.57
10006;BME280;5042;42.626;23.382;2023-04-01T06:47:51;93146.38;;;13.87;70.53
10006;BME280;5042;42.626;23.382;2023-04-01T06:50:24;92967.72;;;12.20;74.92
10006;BME280;5042;42.626;23.382;2023-04-01T06:52:58;93109.78;;;13.11;78.90
10006;BME280;5042;42.626;23.382;2023-04-01T06:55:37;93157.41;;;13.39;79.39
10006;BME280;5042;42.626;23.382;2023-04-01T06:58:13;93155.00;;;13.08;81.62
10006;BME280;5042;42.626;23.382;2023-04-01T07:00:44;93135.22;;;13.06;86.87
10006;BME280;5042;42.626;23.382;2023-04-01T07:03:19;93147.94;;;12.97;86.32
10006;BME280;5042;42.626;23.382;2023-04-01T07:05:48;93136.91;;;12.71;88.87
10006;BME280;5042;42.626;23.382;2023-04-01T07:08:18;93110.38;;;12.73;90.75
10006;BME280;5042;42.626;23.382;2023-04-01T07:10:52;93135.41;;;12.76;92.42
10006;BME280;5042;42.626;23.382;2023-04-01T07:13:24;93129.59;;;12.73;90.68
10006;BME280;5042;42.626;23.382;2023-04-01T07:16:03;93108.44;;;12.68;91.02
10006;BME280;5042;42.626;23.382;2023-04-01T07:18:36;93118.72;;;12.82;93.19
10006;BME280;5042;42.626;23.382;2023-04-01T07:21:04;93124.06;;;12.87;90.77
10006;BME280;5042;42.626;23.382;2023-04-01T07:23:40;93109.13;;;13.04;91.68
10006;BME280;5042;42.626;23.382;2023-04-01T07:26:21;93116.66;;;13.12;93.32
10006;BME280;5042;42.626;23.382;2023-04-01T07:28:48;93112.00;;;13.03;94.37
10006;BME280;5042;42.626;23.382;2023-04-01T07:31:20;93129.94;;;13.06;95.23
10006;BME280;5042;42.626;23.382;2023-04-01T07:33:59;93131.47;;;13.30;96.26
10006;BME280;5042;42.626;23.382;2023-04-01T07:36:33;93129.09;;;13.29;96.57
10006;BME280;5042;42.626;23.382;2023-04-01T07:39:14;93125.84;;;13.27;100.00
10006;BME280;5042;42.626;23.382;2023-04-01T07:41:51;93132.59;;;13.34;100.00
10006;BME280;5042;42.626;23.382;2023-04-01T07:44:25;93128.69;;;13.37;99.50
10006;BME280;5042;42.626;23.382;2023-04-01T07:47:23;93122.38;;;13.38;97.15
10006;BME280;5042;42.626;23.382;2023-04-01T07:50:02;93122.25;;;13.45;96.76
10006;BME280;5042;42.626;23.382;2023-04-01T07:52:38;93060.28;;;13.08;97.51
10006;BME280;5042;42.626;23.382;2023-04-01T07:55:14;93109.97;;;13.50;96.00
10006;BME280;5042;42.626;23.382;2023-04-01T07:57:49;93119.22;;;13.53;99.40
10006;BME280;5042;42.626;23.382;2023-04-01T08:00:21;93118.41;;;13.52;98.25
10006;BME280;5042;42.626;23.382;2023-04-01T08:03:04;93127.69;;;13.55;99.22
10006;BME280;5042;42.626;23.382;2023-04-01T08:05:41;93106.94;;;13.58;98.77
10006;BME280;5042;42.626;23.382;2023-04-01T08:08:14;93106.28;;;13.51;98.51
10006;BME280;5042;42.626;23.382;2023-04-01T08:10:48;93114.84;;;13.58;98.46
10006;BME280;5042;42.626;23.382;2023-04-01T08:13:27;93104.88;;;13.77;97.83
10006;BME280;5042;42.626;23.382;2023-04-01T08:16:07;93099.03;;;13.75;96.16
10006;BME280;5042;42.626;23.382;2023-04-01T08:18:40;93099.75;;;13.88;95.11
10006;BME280;5042;42.626;23.382;2023-04-01T08:21:13;93103.44;;;13.87;96.57
10006;BME280;5042;42.626;23.382;2023-04-01T08:23:44;93086.75;;;13.98;98.06
10006;BME280;5042;42.626;23.382;2023-04-01T08:26:17;93082.97;;;14.11;96.64
10006;BME280;5042;42.626;23.382;2023-04-01T08:28:51;93071.94;;;14.14;96.21
10006;BME280;5042;42.626;23.382;2023-04-01T08:31:26;93040.00;;;14.10;96.23
10006;BME280;5042;42.626;23.382;2023-04-01T08:33:56;93054.53;;;14.13;94.93
10006;BME280;5042;42.626;23.382;2023-04-01T08:36:26;93058.47;;;14.10;97.26
10006;BME280;5042;42.626;23.382;2023-04-01T08:38:56;93056.09;;;14.31;92.71
10006;BME280;5042;42.626;23.382;2023-04-01T08:41:37;93034.25;;;14.35;95.80
10006;BME280;5042;42.626;23.382;2023-04-01T08:44:24;93014.28;;;14.39;95.41
10006;BME280;5042;42.626;23.382;2023-04-01T08:47:18;93009.94;;;14.50;88.92
10006;BME280;5042;42.626;23.382;2023-04-01T08:50:15;93012.63;;;14.77;93.30
10006;BME280;5042;42.626;23.382;2023-04-01T08:52:50;93020.13;;;15.50;88.76
10006;BME280;5042;42.626;23.382;2023-04-01T08:55:29;93025.31;;;16.09;85.40
10006;BME280;5042;42.626;23.382;2023-04-01T08:58:32;93011.72;;;16.48;80.01
10006;BME280;5042;42.626;23.382;2023-04-01T09:01:13;92998.34;;;16.75;76.58
10006;BME280;5042;42.626;23.382;2023-04-01T09:04:03;93015.13;;;17.17;77.55
10006;BME280;5042;42.626;23.382;2023-04-01T09:06:40;93017.50;;;17.34;73.44
10006;BME280;5042;42.626;23.382;2023-04-01T09:12:38;93014.06;;;17.23;65.36
10006;BME280;5042;42.626;23.382;2023-04-01T09:18:30;93013.81;;;16.41;66.31
10006;BME280;5042;42.626;23.382;2023-04-01T09:27:04;92995.72;;;16.18;66.88
10006;BME280;5042;42.626;23.382;2023-04-01T09:32:57;92978.66;;;15.83;65.59
10006;BME280;5042;42.626;23.382;2023-04-01T09:35:39;92983.53;;;15.64;66.23
10006;BME280;5042;42.626;23.382;2023-04-01T09:38:20;92983.88;;;15.78;68.99
10006;BME280;5042;42.626;23.382;2023-04-01T09:40:54;92985.00;;;15.87;67.95
10006;BME280;5042;42.626;23.382;2023-04-01T09:43:25;92971.25;;;15.85;69.41
10006;BME280;5042;42.626;23.382;2023-04-01T09:46:03;92984.00;;;15.98;67.09
10006;BME280;5042;42.626;23.382;2023-04-01T09:48:47;92978.00;;;16.13;67.66
10006;BME280;5042;42.626;23.382;2023-04-01T09:51:30;92984.63;;;16.16;64.43
10006;BME280;5042;42.626;23.382;2023-04-01T09:54:20;92962.19;;;16.23;63.56
10006;BME280;5042;42.626;23.382;2023-04-01T09:57:30;92964.00;;;16.13;63.15
10006;BME280;5042;42.626;23.382;2023-04-01T10:00:31;92960.78;;;16.00;64.73
10006;BME280;5042;42.626;23.382;2023-04-01T10:12:59;92945.34;;;15.82;68.50
10006;BME280;5042;42.626;23.382;2023-04-01T10:19:08;92936.47;;;15.61;69.37
10006;BME280;5042;42.626;23.382;2023-04-01T10:22:15;92935.13;;;15.53;71.09
10006;BME280;5042;42.626;23.382;2023-04-01T10:25:02;92934.03;;;15.49;72.46
10006;BME280;5042;42.626;23.382;2023-04-01T10:31:20;92917.16;;;15.55;67.24
10006;BME280;5042;42.626;23.382;2023-04-01T10:34:25;92922.78;;;15.64;69.72
10006;BME280;5042;42.626;23.382;2023-04-01T10:36:57;92931.03;;;15.73;72.42
10006;BME280;5042;42.626;23.382;2023-04-01T10:39:45;92904.69;;;15.83;70.34
10006;BME280;5042;42.626;23.382;2023-04-01T10:42:41;92912.34;;;15.89;72.10
10006;BME280;5042;42.626;23.382;2023-04-01T10:48:20;92891.94;;;15.75;71.50
10006;BME280;5042;42.626;23.382;2023-04-01T10:51:21;92887.91;;;15.62;72.09
10006;BME280;5042;42.626;23.382;2023-04-01T10:54:20;92892.22;;;15.73;69.34
10006;BME280;5042;42.626;23.382;2023-04-01T10:56:59;92896.22;;;15.81;70.12
10006;BME280;5042;42.626;23.382;2023-04-01T10:59:57;92880.75;;;15.62;70.90
10006;BME280;5042;42.626;23.382;2023-04-01T11:02:58;92859.22;;;15.76;69.65
10006;BME280;5042;42.626;23.382;2023-04-01T11:15:03;92878.06;;;16.05;70.09
10006;BME280;5042;42.626;23.382;2023-04-01T11:24:10;92860.25;;;15.75;72.59
10006;BME280;5042;42.626;23.382;2023-04-01T11:26:52;92864.78;;;15.89;61.14
10006;BME280;5042;42.626;23.382;2023-04-01T11:29:47;92878.63;;;16.22;57.69
10006;BME280;5042;42.626;23.382;2023-04-01T11:32:29;92871.31;;;16.55;55.90
10006;BME280;5042;42.626;23.382;2023-04-01T11:35:30;92892.75;;;16.69;54.88
10006;BME280;5042;42.626;23.382;2023-04-01T11:38:07;92909.19;;;16.86;54.55
10006;BME280;5042;42.626;23.382;2023-04-01T11:40:45;92884.00;;;16.63;53.29
10006;BME280;5042;42.626;23.382;2023-04-01T11:43:18;92980.69;;;17.02;55.93
10006;BME280;5042;42.626;23.382;2023-04-01T11:45:51;92990.69;;;16.84;66.62
10006;BME280;5042;42.626;23.382;2023-04-01T11:48:41;93019.31;;;16.29;81.79
10006;BME280;5042;42.626;23.382;2023-04-01T11:51:32;93038.59;;;15.82;95.35
10006;BME280;5042;42.626;23.382;2023-04-01T11:54:10;93028.94;;;15.01;100.00
10006;BME280;5042;42.626;23.382;2023-04-01T11:56:54;93069.72;;;14.89;100.00
10006;BME280;5042;42.626;23.382;2023-04-01T11:59:42;93055.44;;;14.40;100.00
10006;BME280;5042;42.626;23.382;2023-04-01T12:02:20;93105.00;;;14.05;100.00
10006;BME280;5042;42.626;23.382;2023-04-01T12:04:58;93117.38;;;13.36;100.00
10006;BME280;5042;42.626;23.382;2023-04-01T12:07:41;93111.47;;;13.18;100.00
10006;BME280;5042;42.626;23.382;2023-04-01T12:10:17;93071.94;;;12.84;100.00
10006;BME280;5042;42.626;23.382;2023-04-01T12:12:51;93087.59;;;12.38;100.00
10006;BME280;5042;42.626;23.382;2023-04-01T12:15:28;93099.50;;;12.29;100.00
10006;BME280;5042;42.626;23.382;2023-04-01T12:18:02;93078.53;;;12.17;100.00
10006;BME280;5042;42.626;23.382;2023-04-01T12:20:39;93099.63;;;12.22;100.00
10006;BME280;5042;42.626;23.382;2023-04-01T12:23:29;93103.66;;;12.13;100.00
10006;BME280;5042;42.626;23.382;2023-04-01T12:26:15;93093.72;;;11.92;100.00
10006;BME280;5042;42.626;23.382;2023-04-01T12:29:03;93089.34;;;11.85;100.00
10006;BME280;5042;42.626;23.382;2023-04-01T12:31:40;93076.59;;;11.89;100.00
10006;BME280;5042;42.626;23.382;2023-04-01T12:34:37;93070.66;;;11.94;100.00
10006;BME280;5042;42.626;23.382;2023-04-01T12:37:13;93085.16;;;12.08;100.00
10006;BME280;5042;42.626;23.382;2023-04-01T12:40:02;93090.84;;;12.17;100.00
10006;BME280;5042;42.626;23.382;2023-04-01T12:42:44;93085.69;;;12.10;100.00
10006;BME280;5042;42.626;23.382;2023-04-01T12:45:28;93116.31;;;12.16;100.00
10006;BME280;5042;42.626;23.382;2023-04-01T12:48:07;93088.56;;;12.08;100.00
10006;BME280;5042;42.626;23.382;2023-04-01T12:50:58;93102.34;;;11.80;100.00
10006;BME280;5042;42.626;23.382;2023-04-01T12:53:42;93107.94;;;11.84;100.00
10006;BME280;5042;42.626;23.382;2023-04-01T12:56:14;93108.38;;;11.69;100.00
10006;BME280;5042;42.626;23.382;2023-04-01T12:59:00;93100.50;;;11.69;100.00
10006;BME280;5042;42.626;23.382;2023-04-01T13:01:46;93095.50;;;11.56;100.00
10006;BME280;5042;42.626;23.382;2023-04-01T13:07:53;93079.63;;;11.62;100.00
10006;BME280;5042;42.626;23.382;2023-04-01T13:10:36;93049.72;;;11.40;100.00
10006;BME280;5042;42.626;23.382;2023-04-01T13:13:23;93085.00;;;11.56;100.00
10006;BME280;5042;42.626;23.382;2023-04-01T13:15:58;93079.63;;;11.62;100.00
10006;BME280;5042;42.626;23.382;2023-04-01T13:18:32;93045.75;;;11.73;100.00
10006;BME280;5042;42.626;23.382;2023-04-01T13:21:09;93010.38;;;11.87;100.00
10006;BME280;5042;42.626;23.382;2023-04-01T13:23:47;93004.41;;;12.15;100.00
10006;BME280;5042;42.626;23.382;2023-04-01T13:26:24;92997.66;;;12.48;100.00
10006;BME280;5042;42.626;23.382;2023-04-01T13:28:59;93003.31;;;12.85;100.00
10006;BME280;5042;42.626;23.382;2023-04-01T13:31:50;92993.66;;;13.20;100.00
10006;BME280;5042;42.626;23.382;2023-04-01T13:34:35;92980.59;;;13.42;100.00
10006;BME280;5042;42.626;23.382;2023-04-01T13:37:18;92972.53;;;13.87;100.00
10006;BME280;5042;42.626;23.382;2023-04-01T13:40:05;92959.31;;;14.26;100.00
10006;BME280;5042;42.626;23.382;2023-04-01T13:42:42;92964.44;;;14.60;100.00
10006;BME280;5042;42.626;23.382;2023-04-01T13:45:16;92971.50;;;14.81;100.00
10006;BME280;5042;42.626;23.382;2023-04-01T13:48:22;92965.00;;;15.21;100.00
10006;BME280;5042;42.626;23.382;2023-04-01T13:54:01;92975.34;;;16.08;100.00
10006;BME280;5042;42.626;23.382;2023-04-01T13:56:40;92966.13;;;16.16;98.02
10006;BME280;5042;42.626;23.382;2023-04-01T13:59:34;92979.94;;;16.28;100.00
10006;BME280;5042;42.626;23.382;2023-04-01T14:02:19;92957.28;;;16.63;100.00
10006;BME280;5042;42.626;23.382;2023-04-01T14:04:59;92949.09;;;16.64;100.00
10006;BME280;5042;42.626;23.382;2023-04-01T14:07:41;92945.13;;;16.72;91.41
10006;BME280;5042;42.626;23.382;2023-04-01T14:10:19;92946.69;;;15.84;100.00
10006;BME280;5042;42.626;23.382;2023-04-01T14:12:58;92943.16;;;14.67;100.00
10006;BME280;5042;42.626;23.382;2023-04-01T14:15:39;92962.19;;;14.25;100.00
10006;BME280;5042;42.626;23.382;2023-04-01T14:18:20;92938.41;;;13.75;100.00
10006;BME280;5042;42.626;23.382;2023-04-01T14:20:59;92939.34;;;13.30;100.00
10006;BME280;5042;42.626;23.382;2023-04-01T14:23:41;92942.75;;;12.97;100.00
10006;BME280;5042;42.626;23.382;2023-04-01T14:26:35;92933.66;;;13.05;100.00
10006;BME280;5042;42.626;23.382;2023-04-01T14:29:18;92914.63;;;12.81;100.00
10006;BME280;5042;42.626;23.382;2023-04-01T14:32:02;92915.66;;;12.97;100.00
10006;BME280;5042;42.626;23.382;2023-04-01T14:34:47;92922.34;;;13.04;100.00
10006;BME280;5042;42.626;23.382;2023-04-01T14:37:46;92926.19;;;12.80;100.00
10006;BME280;5042;42.626;23.382;2023-04-01T14:40:24;92925.78;;;12.88;100.00